createdAt,value
2022-12-26T00:00:57.428Z,6.58
2022-12-26T00:03:24.639Z,6.51
2022-12-26T00:05:51.605Z,6.67
2022-12-26T00:08:18.735Z,6.61
2022-12-26T00:10:45.583Z,6.66
2022-12-26T00:13:39.837Z,6.56
2022-12-26T00:15:59.553Z,6.33
2022-12-26T00:18:26.514Z,6.37
2022-12-26T00:20:53.801Z,6.55
2022-12-26T00:23:20.689Z,6.55
2022-12-26T00:25:47.616Z,6.42
2022-12-26T00:28:14.630Z,6.32
2022-12-26T00:30:41.540Z,6.45
2022-12-26T00:33:08.379Z,6.34
2022-12-26T00:35:35.280Z,6.42
2022-12-26T00:38:02.252Z,6.43
2022-12-26T00:40:29.665Z,6.45
2022-12-26T00:42:56.572Z,6.32
2022-12-26T00:45:23.520Z,6.16
2022-12-26T00:47:50.434Z,6.32
2022-12-26T00:50:17.774Z,6.58
2022-12-26T00:52:44.617Z,7.05
2022-12-26T00:55:11.492Z,7.08
2022-12-26T00:57:38.390Z,6.98
2022-12-26T01:00:05.933Z,6.26
2022-12-26T01:02:38.736Z,6.30
2022-12-26T01:05:09.425Z,6.38
2022-12-26T01:08:21.561Z,6.37
2022-12-26T01:10:24.733Z,6.69
2022-12-26T01:12:52.091Z,6.31
2022-12-26T01:15:19.619Z,6.51
2022-12-26T01:17:47.296Z,6.28
2022-12-26T01:20:14.342Z,5.88
2022-12-26T01:22:41.362Z,5.98
2022-12-26T01:25:08.931Z,6.39
2022-12-26T01:27:35.829Z,6.45
2022-12-26T01:30:02.940Z,6.26
2022-12-26T01:32:29.829Z,6.00
2022-12-26T01:34:56.895Z,5.99
2022-12-26T01:37:24.058Z,5.82
2022-12-26T01:39:52.398Z,6.06
2022-12-26T01:42:22.093Z,6.28
2022-12-26T01:45:07.168Z,6.10
2022-12-26T01:47:51.782Z,5.89
2022-12-26T01:50:27.789Z,6.10
2022-12-26T01:52:58.646Z,6.32
2022-12-26T01:55:27.016Z,6.23
2022-12-26T01:58:05.517Z,6.09
2022-12-26T02:00:33.571Z,5.75
2022-12-26T02:03:19.236Z,5.52
2022-12-26T02:05:46.416Z,4.81
2022-12-26T02:08:17.417Z,5.34
2022-12-26T02:10:55.807Z,5.17
2022-12-26T02:13:24.004Z,5.10
2022-12-26T02:15:50.947Z,5.36
2022-12-26T02:18:17.974Z,5.16
2022-12-26T02:21:10.014Z,4.99
2022-12-26T02:23:55.360Z,5.36
2022-12-26T02:26:40.093Z,5.67
2022-12-26T02:29:12.924Z,5.09
2022-12-26T02:32:05.840Z,5.08
2022-12-26T02:34:56.813Z,5.22
2022-12-26T02:37:35.694Z,4.95
2022-12-26T02:40:17.828Z,5.16
2022-12-26T02:42:47.879Z,5.23
2022-12-26T02:45:36.418Z,5.34
2022-12-26T02:48:13.632Z,5.06
2022-12-26T02:51:39.570Z,5.35
2022-12-26T02:54:38.062Z,5.34
2022-12-26T02:57:27.425Z,5.51
2022-12-26T03:00:36.120Z,5.10
2022-12-26T03:03:28.166Z,5.22
2022-12-26T03:06:19.544Z,5.09
2022-12-26T03:09:06.849Z,5.13
2022-12-26T03:11:58.211Z,5.19
2022-12-26T03:14:57.357Z,5.13
2022-12-26T03:17:32.628Z,5.29
2022-12-26T03:20:11.325Z,4.98
2022-12-26T03:22:49.234Z,5.21
2022-12-26T03:25:55.694Z,5.31
2022-12-26T03:28:23.473Z,5.40
2022-12-26T03:30:52.088Z,5.21
2022-12-26T03:33:45.933Z,5.42
2022-12-26T03:36:41.699Z,5.66
2022-12-26T03:39:47.028Z,5.40
2022-12-26T03:43:15.579Z,5.10
2022-12-26T03:46:22.890Z,5.46
2022-12-26T03:49:29.694Z,5.21
2022-12-26T03:52:28.749Z,5.36
2022-12-26T03:55:40.294Z,5.17
2022-12-26T03:59:09.030Z,5.26
2022-12-26T04:01:58.389Z,5.04
2022-12-26T04:04:48.040Z,5.30
2022-12-26T04:07:56.002Z,5.09
2022-12-26T04:10:50.007Z,5.24
2022-12-26T04:13:40.620Z,5.27
2022-12-26T04:16:36.640Z,5.22
2022-12-26T04:19:35.400Z,4.86
2022-12-26T04:22:29.652Z,4.84
2022-12-26T04:25:50.251Z,5.36
2022-12-26T04:28:38.545Z,5.57
2022-12-26T04:31:41.266Z,4.55
2022-12-26T04:34:34.204Z,4.55
2022-12-26T04:37:23.372Z,4.39
2022-12-26T04:40:13.090Z,4.32
2022-12-26T04:43:02.346Z,4.14
2022-12-26T04:45:49.801Z,4.03
2022-12-26T04:48:36.344Z,4.13
2022-12-26T04:51:03.128Z,4.76
2022-12-26T04:53:29.985Z,4.88
2022-12-26T04:55:56.980Z,4.96
2022-12-26T04:58:24.481Z,4.19
2022-12-26T05:00:51.408Z,3.69
2022-12-26T05:03:36.800Z,3.46
2022-12-26T05:06:22.059Z,3.81
2022-12-26T05:09:07.665Z,4.00
2022-12-26T05:11:35.566Z,3.83
2022-12-26T05:14:02.735Z,3.70
2022-12-26T05:16:48.249Z,3.77
2022-12-26T05:19:35.792Z,3.39
2022-12-26T05:22:23.280Z,3.54
2022-12-26T05:25:08.967Z,3.85
2022-12-26T05:27:56.911Z,4.10
2022-12-26T05:30:24.889Z,4.31
2022-12-26T05:33:10.239Z,4.08
2022-12-26T05:35:37.899Z,3.86
2022-12-26T05:38:05.134Z,3.97
2022-12-26T05:40:32.371Z,3.97
2022-12-26T05:42:59.310Z,3.99
2022-12-26T05:45:26.371Z,4.25
2022-12-26T05:48:00.954Z,4.57
2022-12-26T05:50:28.870Z,4.90
2022-12-26T05:52:59.692Z,5.68
2022-12-26T05:55:26.763Z,6.15
2022-12-26T05:57:53.808Z,6.93
2022-12-26T06:00:21.378Z,8.03
2022-12-26T06:02:48.889Z,8.31
2022-12-26T06:05:16.149Z,7.96
2022-12-26T06:07:43.081Z,9.44
2022-12-26T06:10:10.581Z,10.40
2022-12-26T06:12:37.517Z,11.35
2022-12-26T06:15:04.814Z,11.82
2022-12-26T06:17:32.030Z,12.90
2022-12-26T06:19:58.952Z,12.81
2022-12-26T06:22:25.966Z,12.17
2022-12-26T06:24:52.866Z,12.50
2022-12-26T06:27:19.720Z,14.25
2022-12-26T06:29:46.650Z,13.46
2022-12-26T06:32:13.588Z,13.28
2022-12-26T06:34:40.614Z,13.19
2022-12-26T06:37:07.648Z,13.71
2022-12-26T06:39:34.699Z,14.21
2022-12-26T06:42:01.649Z,12.95
2022-12-26T06:44:28.535Z,11.70
2022-12-26T06:46:55.393Z,10.69
2022-12-26T06:49:26.207Z,9.86
2022-12-26T06:51:55.664Z,9.34
2022-12-26T06:54:22.690Z,9.57
2022-12-26T06:56:49.555Z,10.10
2022-12-26T06:59:16.432Z,11.09
2022-12-26T07:01:43.423Z,11.72
2022-12-26T07:04:13.331Z,11.52
2022-12-26T07:06:40.329Z,12.64
2022-12-26T07:09:11.033Z,12.75
2022-12-26T07:11:40.509Z,13.14
2022-12-26T07:14:08.261Z,13.03
2022-12-26T07:16:36.433Z,11.71
2022-12-26T07:19:04.533Z,11.72
2022-12-26T07:21:37.988Z,11.98
2022-12-26T07:24:09.054Z,13.18
2022-12-26T07:26:35.992Z,14.71
2022-12-26T07:29:02.924Z,16.89
2022-12-26T07:31:29.899Z,18.08
2022-12-26T07:33:57.271Z,20.58
2022-12-26T07:36:25.359Z,19.25
2022-12-26T07:38:52.643Z,19.74
2022-12-26T07:41:38.494Z,20.09
2022-12-26T07:44:06.311Z,20.40
2022-12-26T07:46:34.155Z,21.73
2022-12-26T07:49:01.509Z,24.50
2022-12-26T07:51:28.463Z,24.80
2022-12-26T07:53:55.364Z,24.07
2022-12-26T07:56:22.286Z,22.67
2022-12-26T07:58:50.411Z,20.10
2022-12-26T08:01:17.914Z,20.74
2022-12-26T08:03:45.216Z,21.08
2022-12-26T08:06:12.222Z,21.59
2022-12-26T08:08:40.330Z,22.24
2022-12-26T08:11:15.423Z,22.20
2022-12-26T08:13:42.478Z,22.66
2022-12-26T08:16:12.204Z,22.74
2022-12-26T08:18:39.211Z,22.54
2022-12-26T08:21:06.115Z,22.70
2022-12-26T08:23:33.978Z,23.12
2022-12-26T08:26:06.117Z,23.21
2022-12-26T08:28:33.102Z,23.15
2022-12-26T08:31:00.452Z,22.31
2022-12-26T08:33:27.932Z,22.54
2022-12-26T08:35:54.952Z,22.72
2022-12-26T08:38:21.845Z,23.66
2022-12-26T08:40:56.472Z,23.42
2022-12-26T08:44:03.000Z,22.04
2022-12-26T08:46:13.094Z,20.45
2022-12-26T08:48:41.195Z,19.46
2022-12-26T08:51:12.634Z,18.03
2022-12-26T08:53:39.846Z,18.50
2022-12-26T08:56:08.658Z,17.65
2022-12-26T08:58:35.744Z,18.80
2022-12-26T09:01:08.205Z,19.29
2022-12-26T09:03:35.259Z,18.79
2022-12-26T09:06:06.221Z,18.26
2022-12-26T09:08:35.063Z,17.66
2022-12-26T09:11:04.376Z,17.89
2022-12-26T09:13:32.825Z,18.86
2022-12-26T09:16:12.185Z,18.20
2022-12-26T09:18:40.023Z,19.78
2022-12-26T09:21:10.079Z,20.11
2022-12-26T09:23:38.291Z,19.82
2022-12-26T09:26:07.714Z,20.83
2022-12-26T09:28:35.291Z,21.45
2022-12-26T09:31:07.788Z,21.17
2022-12-26T09:33:37.774Z,21.92
2022-12-26T09:36:14.581Z,22.01
2022-12-26T09:38:43.198Z,22.15
2022-12-26T09:41:22.117Z,23.13
2022-12-26T09:43:59.826Z,22.20
2022-12-26T09:46:26.698Z,22.43
2022-12-26T09:49:03.485Z,22.60
2022-12-26T09:51:33.554Z,22.98
2022-12-26T09:54:04.669Z,22.38
2022-12-26T09:57:01.666Z,20.72
2022-12-26T09:59:26.248Z,21.21
2022-12-26T10:01:53.916Z,20.69
2022-12-26T10:04:30.550Z,21.10
2022-12-26T10:07:16.587Z,22.63
2022-12-26T10:10:10.680Z,21.65
2022-12-26T10:13:07.854Z,21.28
2022-12-26T10:15:52.458Z,19.67
2022-12-26T10:18:40.248Z,19.71
2022-12-26T10:21:28.765Z,19.59
2022-12-26T10:24:03.303Z,20.99
2022-12-26T10:26:35.301Z,20.94
2022-12-26T10:29:04.691Z,21.36
2022-12-26T10:31:48.273Z,22.41
2022-12-26T10:34:15.180Z,23.14
2022-12-26T10:36:50.930Z,22.56
2022-12-26T10:39:33.798Z,24.22
2022-12-26T10:42:11.199Z,24.10
2022-12-26T10:44:40.628Z,24.02
2022-12-26T10:47:19.875Z,22.64
2022-12-26T10:49:48.521Z,20.63
2022-12-26T10:52:18.562Z,20.74
2022-12-26T10:54:51.581Z,20.55
2022-12-26T10:57:41.545Z,19.51
2022-12-26T11:00:25.989Z,21.07
2022-12-26T11:03:08.908Z,20.73
2022-12-26T11:06:06.466Z,21.21
2022-12-26T11:08:40.736Z,20.95
2022-12-26T11:11:46.289Z,21.22
2022-12-26T11:14:40.442Z,22.35
2022-12-26T11:17:34.265Z,20.10
2022-12-26T11:20:10.755Z,18.94
2022-12-26T11:22:38.629Z,17.50
2022-12-26T11:25:14.805Z,17.55
2022-12-26T11:27:45.665Z,17.10
2022-12-26T11:30:19.323Z,16.90
2022-12-26T11:33:08.396Z,17.46
2022-12-26T11:35:48.610Z,18.24
2022-12-26T11:38:39.104Z,17.00
2022-12-26T11:41:31.764Z,16.06
2022-12-26T11:44:14.122Z,15.76
2022-12-26T11:46:55.894Z,15.58
2022-12-26T11:49:34.514Z,14.54
2022-12-26T11:52:23.139Z,14.54
2022-12-26T11:54:51.364Z,14.73
2022-12-26T11:57:28.310Z,15.59
2022-12-26T11:59:55.868Z,15.00
2022-12-26T12:02:31.130Z,15.14
2022-12-26T12:05:02.764Z,15.09
2022-12-26T12:07:38.757Z,15.39
2022-12-26T12:10:35.584Z,15.43
2022-12-26T12:13:24.081Z,15.43
2022-12-26T12:16:00.114Z,14.93
2022-12-26T12:18:47.291Z,14.75
2022-12-26T12:22:00.905Z,15.38
2022-12-26T12:24:36.833Z,14.99
2022-12-26T12:27:38.386Z,15.14
2022-12-26T12:30:20.622Z,15.34
2022-12-26T12:33:06.059Z,15.47
2022-12-26T12:35:41.862Z,14.44
2022-12-26T12:38:27.625Z,14.66
2022-12-26T12:41:22.507Z,14.35
2022-12-26T12:43:52.308Z,14.51
2022-12-26T12:46:53.190Z,14.47
2022-12-26T12:49:28.758Z,15.10
2022-12-26T12:52:28.982Z,14.54
2022-12-26T12:55:01.542Z,14.09
2022-12-26T12:57:51.246Z,14.83
2022-12-26T13:00:21.827Z,14.40
2022-12-26T13:03:12.008Z,14.33
2022-12-26T13:05:44.821Z,14.53
2022-12-26T13:08:22.655Z,14.09
2022-12-26T13:10:58.228Z,14.13
2022-12-26T13:13:29.899Z,15.76
2022-12-26T13:16:03.806Z,15.89
2022-12-26T13:18:37.878Z,14.81
2022-12-26T13:21:11.790Z,14.04
2022-12-26T13:24:04.311Z,13.29
2022-12-26T13:26:49.044Z,14.62
2022-12-26T13:29:44.761Z,14.37
2022-12-26T13:32:41.924Z,13.73
2022-12-26T13:35:49.260Z,13.29
2022-12-26T13:38:16.313Z,12.94
2022-12-26T13:40:50.021Z,12.37
2022-12-26T13:43:42.517Z,12.89
2022-12-26T13:46:51.346Z,13.25
2022-12-26T13:49:36.627Z,13.18
2022-12-26T13:52:12.427Z,12.71
2022-12-26T13:54:48.353Z,11.80
2022-12-26T13:57:40.338Z,12.50
2022-12-26T14:00:09.624Z,12.37
2022-12-26T14:03:17.206Z,12.05
2022-12-26T14:06:05.120Z,12.31
2022-12-26T14:08:39.992Z,12.29
2022-12-26T14:11:16.211Z,11.84
2022-12-26T14:14:19.881Z,11.80
2022-12-26T14:16:46.760Z,11.27
2022-12-26T14:19:35.015Z,11.06
2022-12-26T14:22:36.648Z,10.97
2022-12-26T14:25:26.878Z,10.55
2022-12-26T14:28:10.795Z,10.81
2022-12-26T14:30:50.072Z,10.97
2022-12-26T14:33:46.898Z,11.21
2022-12-26T14:36:26.414Z,11.08
2022-12-26T14:39:19.569Z,11.13
2022-12-26T14:42:26.682Z,10.75
2022-12-26T14:44:59.021Z,10.47
2022-12-26T14:47:48.039Z,10.45
2022-12-26T14:50:33.203Z,10.51
2022-12-26T14:53:27.704Z,10.39
2022-12-26T14:56:14.397Z,10.36
2022-12-26T14:58:48.237Z,10.28
2022-12-26T15:01:18.680Z,10.09
2022-12-26T15:04:16.770Z,10.34
2022-12-26T15:06:46.613Z,10.50
2022-12-26T15:09:25.778Z,10.52
2022-12-26T15:12:27.590Z,10.36
2022-12-26T15:15:19.319Z,10.25
2022-12-26T15:18:04.103Z,9.97
2022-12-26T15:21:01.283Z,10.10
2022-12-26T15:23:58.527Z,10.11
2022-12-26T15:26:44.197Z,10.04
2022-12-26T15:29:29.321Z,10.16
2022-12-26T15:32:04.545Z,10.30
2022-12-26T15:34:36.751Z,10.35
2022-12-26T15:37:18.428Z,10.09
2022-12-26T15:40:03.419Z,9.76
2022-12-26T15:42:36.292Z,9.33
2022-12-26T15:45:27.724Z,9.43
2022-12-26T15:48:13.714Z,9.14
2022-12-26T15:51:05.497Z,9.37
2022-12-26T15:53:44.301Z,9.40
2022-12-26T15:56:23.527Z,9.38
2022-12-26T15:59:09.146Z,9.45
2022-12-26T16:01:40.216Z,9.50
2022-12-26T16:04:17.926Z,9.63
2022-12-26T16:07:15.001Z,9.37
2022-12-26T16:09:44.008Z,9.57
2022-12-26T16:12:23.233Z,9.56
2022-12-26T16:14:51.125Z,9.43
2022-12-26T16:17:21.947Z,9.18
2022-12-26T16:19:51.486Z,9.12
2022-12-26T16:22:44.597Z,9.28
2022-12-26T16:25:26.615Z,9.18
2022-12-26T16:27:56.810Z,9.37
2022-12-26T16:30:44.094Z,9.50
2022-12-26T16:33:14.857Z,9.22
2022-12-26T16:35:43.210Z,9.30
2022-12-26T16:38:17.033Z,9.56
2022-12-26T16:40:44.916Z,9.82
2022-12-26T16:43:17.874Z,9.66
2022-12-26T16:45:48.152Z,9.88
2022-12-26T16:48:18.659Z,10.03
2022-12-26T16:50:55.129Z,9.93
2022-12-26T16:53:43.135Z,9.82
2022-12-26T16:56:25.161Z,9.78
2022-12-26T16:59:04.661Z,9.78
2022-12-26T17:01:33.338Z,9.42
2022-12-26T17:04:26.234Z,9.40
2022-12-26T17:07:08.124Z,9.47
2022-12-26T17:09:49.831Z,9.48
2022-12-26T17:12:24.371Z,9.48
2022-12-26T17:14:53.279Z,9.23
2022-12-26T17:17:23.187Z,9.50
2022-12-26T17:19:54.388Z,9.37
2022-12-26T17:22:32.155Z,9.05
2022-12-26T17:25:17.453Z,9.25
2022-12-26T17:27:45.667Z,9.35
2022-12-26T17:30:32.361Z,9.26
2022-12-26T17:33:22.295Z,9.27
2022-12-26T17:36:52.508Z,9.43
2022-12-26T17:38:45.057Z,9.45
2022-12-26T17:41:15.959Z,9.10
2022-12-26T17:43:43.949Z,9.24
2022-12-26T17:46:13.882Z,9.32
2022-12-26T17:48:42.188Z,9.46
2022-12-26T17:51:15.803Z,9.47
2022-12-26T17:53:47.482Z,9.45
2022-12-26T17:56:17.997Z,9.31
2022-12-26T17:58:44.979Z,9.38
2022-12-26T18:01:17.516Z,9.39
2022-12-26T18:03:47.557Z,9.40
2022-12-26T18:06:17.444Z,9.35
2022-12-26T18:08:44.603Z,9.29
2022-12-26T18:11:14.054Z,8.46
2022-12-26T18:13:41.969Z,8.87
2022-12-26T18:16:18.821Z,8.98
2022-12-26T18:18:47.454Z,8.93
2022-12-26T18:21:15.875Z,8.91
2022-12-26T18:23:43.336Z,9.14
2022-12-26T18:26:26.515Z,9.21
2022-12-26T18:28:54.240Z,9.17
2022-12-26T18:31:21.859Z,8.99
2022-12-26T18:33:48.907Z,9.27
2022-12-26T18:36:17.380Z,9.49
2022-12-26T18:38:44.775Z,9.51
2022-12-26T18:41:16.680Z,9.41
2022-12-26T18:43:43.666Z,9.54
2022-12-26T18:46:30.945Z,9.46
2022-12-26T18:48:58.153Z,9.32
2022-12-26T18:51:26.446Z,9.22
2022-12-26T18:53:53.999Z,9.23
2022-12-26T18:56:23.001Z,9.26
2022-12-26T18:58:57.158Z,9.19
2022-12-26T19:01:25.415Z,9.14
2022-12-26T19:03:53.964Z,9.16
2022-12-26T19:06:26.770Z,8.98
2022-12-26T19:08:53.801Z,9.02
2022-12-26T19:11:20.992Z,9.13
2022-12-26T19:13:48.019Z,9.17
2022-12-26T19:16:15.025Z,9.22
2022-12-26T19:18:42.002Z,9.22
2022-12-26T19:21:15.988Z,8.93
2022-12-26T19:23:46.847Z,8.55
2022-12-26T19:26:16.396Z,8.51
2022-12-26T19:28:43.421Z,8.63
2022-12-26T19:31:15.258Z,8.72
2022-12-26T19:33:42.554Z,8.91
2022-12-26T19:36:10.164Z,8.76
2022-12-26T19:38:37.646Z,8.80
2022-12-26T19:41:13.993Z,8.60
2022-12-26T19:43:41.342Z,8.68
2022-12-26T19:46:11.471Z,8.65
2022-12-26T19:48:39.491Z,8.24
2022-12-26T19:51:09.292Z,8.26
2022-12-26T19:53:37.401Z,8.14
2022-12-26T19:56:13.574Z,8.02
2022-12-26T19:58:40.916Z,8.16
2022-12-26T20:01:13.399Z,8.18
2022-12-26T20:03:41.248Z,8.32
2022-12-26T20:06:15.829Z,8.19
2022-12-26T20:08:43.807Z,8.06
2022-12-26T20:11:13.888Z,7.58
2022-12-26T20:13:42.779Z,7.36
2022-12-26T20:16:46.032Z,7.50
2022-12-26T20:19:03.399Z,7.66
2022-12-26T20:21:30.429Z,7.73
2022-12-26T20:23:58.852Z,7.62
2022-12-26T20:26:26.485Z,7.63
2022-12-26T20:28:57.344Z,7.58
2022-12-26T20:31:24.474Z,7.70
2022-12-26T20:33:52.556Z,7.68
2022-12-26T20:36:25.526Z,7.72
2022-12-26T20:38:54.468Z,7.86
2022-12-26T20:41:21.486Z,7.86
2022-12-26T20:43:49.625Z,7.84
2022-12-26T20:46:25.441Z,7.12
2022-12-26T20:48:53.021Z,7.38
2022-12-26T20:51:23.391Z,6.94
2022-12-26T20:53:51.799Z,7.30
2022-12-26T20:56:19.167Z,7.32
2022-12-26T20:58:46.380Z,7.36
2022-12-26T21:01:19.371Z,7.43
2022-12-26T21:03:47.238Z,7.31
2022-12-26T21:06:23.363Z,7.38
2022-12-26T21:08:51.944Z,7.50
2022-12-26T21:11:26.260Z,7.48
2022-12-26T21:14:00.570Z,7.38
2022-12-26T21:16:37.267Z,7.43
2022-12-26T21:19:09.353Z,7.75
2022-12-26T21:21:41.040Z,7.77
2022-12-26T21:24:13.079Z,7.85
2022-12-26T21:26:42.162Z,7.44
2022-12-26T21:29:14.028Z,7.26
2022-12-26T21:31:41.554Z,7.03
2022-12-26T21:34:08.937Z,6.81
2022-12-26T21:36:36.340Z,6.90
2022-12-26T21:39:09.154Z,6.79
2022-12-26T21:41:39.112Z,6.59
2022-12-26T21:44:06.046Z,6.67
2022-12-26T21:46:34.246Z,6.59
2022-12-26T21:49:01.366Z,6.93
2022-12-26T21:51:29.821Z,6.82
2022-12-26T21:54:16.650Z,6.69
2022-12-26T21:56:43.676Z,6.66
2022-12-26T21:59:29.343Z,6.65
2022-12-26T22:01:56.692Z,6.15
2022-12-26T22:04:23.905Z,5.52
2022-12-26T22:06:52.978Z,5.42
2022-12-26T22:09:19.911Z,5.56
2022-12-26T22:12:06.170Z,5.54
2022-12-26T22:14:34.634Z,5.42
2022-12-26T22:17:01.637Z,5.66
2022-12-26T22:19:28.673Z,6.00
2022-12-26T22:21:55.686Z,6.04
2022-12-26T22:24:22.652Z,6.42
2022-12-26T22:26:49.843Z,6.11
2022-12-26T22:29:17.009Z,6.00
2022-12-26T22:31:44.089Z,5.54
2022-12-26T22:34:13.632Z,5.05
2022-12-26T22:36:41.359Z,5.56
2022-12-26T22:39:10.043Z,5.84
2022-12-26T22:41:37.641Z,5.76
2022-12-26T22:44:04.799Z,5.93
2022-12-26T22:46:31.770Z,6.08
2022-12-26T22:48:58.728Z,5.93
2022-12-26T22:51:26.411Z,6.13
2022-12-26T22:53:54.945Z,6.25
2022-12-26T22:56:21.838Z,6.28
2022-12-26T22:58:53.256Z,6.06
2022-12-26T23:01:20.749Z,6.05
2022-12-26T23:03:48.125Z,5.92
2022-12-26T23:06:20.711Z,6.31
2022-12-26T23:08:49.042Z,6.38
2022-12-26T23:11:16.461Z,6.43
2022-12-26T23:13:44.757Z,6.16
2022-12-26T23:16:27.239Z,5.72
2022-12-26T23:19:18.690Z,6.27
2022-12-26T23:21:50.520Z,6.66
2022-12-26T23:24:19.349Z,6.76
2022-12-26T23:26:50.350Z,6.88
2022-12-26T23:29:38.255Z,7.09
2022-12-26T23:32:07.292Z,6.92
2022-12-26T23:34:34.606Z,7.23
2022-12-26T23:37:02.236Z,7.42
2022-12-26T23:39:29.791Z,7.47
2022-12-26T23:41:56.777Z,7.37
2022-12-26T23:44:23.668Z,7.52
2022-12-26T23:46:50.702Z,7.74
2022-12-26T23:49:17.707Z,7.78
2022-12-26T23:51:44.725Z,7.81
2022-12-26T23:54:11.663Z,8.00
2022-12-26T23:56:38.667Z,8.00
2022-12-26T23:59:06.006Z,7.91
